Time;durP1;ratioP1;P1;durP2;ratioP2;P2;SDS_P1;SDS_P2;PMS_P1;PMS_P2;Temp;Humidity;BMP_temperature;BMP_pressure;BME280_temperature;BME280_humidity;BME280_pressure;Samples;Min_cycle;Max_cycle;Signal;HPM_P1;HPM_P2
2024/01/29 00:01:25;;;;;;;0.10;0.10;;;;;;;2.66;100.00;97628.50;4987894;28;20050;-73
2024/01/29 00:04:10;;;;;;;0.10;0.10;;;;;;;2.61;100.00;97630.84;4988486;28;20301;-74
2024/01/29 00:06:56;;;;;;;0.20;0.20;;;;;;;2.57;100.00;97618.13;4989019;28;20044;-74
2024/01/29 00:09:45;;;;;;;0.20;0.20;;;;;;;2.51;100.00;97623.09;4989054;28;20042;-75
2024/01/29 00:12:31;;;;;;;0.10;0.10;;;;;;;2.46;100.00;97614.84;4988969;28;20388;-72
2024/01/29 00:15:17;;;;;;;0.10;0.10;;;;;;;2.45;100.00;97620.31;4989749;28;20033;-73
2024/01/29 00:18:03;;;;;;;0.20;0.20;;;;;;;2.43;100.00;97622.31;4986451;28;20038;-72
2024/01/29 00:20:49;;;;;;;0.10;0.10;;;;;;;2.27;100.00;97617.88;4987785;28;20089;-73
2024/01/29 00:23:35;;;;;;;0.10;0.10;;;;;;;2.23;100.00;97627.13;4988884;28;20534;-73
2024/01/29 00:26:21;;;;;;;0.10;0.10;;;;;;;2.14;100.00;97631.59;4988242;28;20107;-73
2024/01/29 00:29:07;;;;;;;0.10;0.10;;;;;;;2.14;100.00;97630.75;4988459;28;20119;-73
2024/01/29 00:31:53;;;;;;;0.10;0.10;;;;;;;2.10;100.00;97621.50;4985863;28;20515;-74
2024/01/29 00:34:39;;;;;;;0.10;0.10;;;;;;;2.08;100.00;97634.88;4989843;28;20716;-75
2024/01/29 00:37:26;;;;;;;0.10;0.10;;;;;;;2.13;100.00;97623.84;4989295;28;20112;-75
2024/01/29 00:40:12;;;;;;;0.10;0.10;;;;;;;2.10;100.00;97622.38;4989136;28;20493;-73
2024/01/29 00:42:58;;;;;;;0.10;0.10;;;;;;;2.16;100.00;97623.50;4989434;28;20050;-72
2024/01/29 00:45:44;;;;;;;0.10;0.10;;;;;;;2.23;100.00;97616.56;4985118;28;20136;-72
2024/01/29 00:48:30;;;;;;;0.15;0.15;;;;;;;2.20;100.00;97622.19;4990234;28;20610;-73
2024/01/29 00:51:18;;;;;;;0.10;0.10;;;;;;;2.17;100.00;97618.03;4989471;28;20073;-74
2024/01/29 00:54:04;;;;;;;0.20;0.20;;;;;;;2.10;100.00;97618.88;4987956;28;20045;-71
2024/01/29 00:56:50;;;;;;;0.10;0.10;;;;;;;2.10;100.00;97621.50;4963221;28;20042;-74
2024/01/29 00:59:36;;;;;;;0.20;0.20;;;;;;;2.07;100.00;97627.97;4978945;28;20061;-73
2024/01/29 01:02:22;;;;;;;0.10;0.10;;;;;;;2.05;100.00;97626.50;4987157;28;20113;-71
2024/01/29 01:05:08;;;;;;;0.10;0.10;;;;;;;2.11;100.00;97634.56;4989180;28;20164;-73
2024/01/29 01:07:54;;;;;;;0.10;0.10;;;;;;;2.07;100.00;97632.41;4986004;28;20047;-72
2024/01/29 01:10:39;;;;;;;0.20;0.20;;;;;;;2.12;100.00;97624.84;4986953;28;20126;-72
2024/01/29 01:13:28;;;;;;;0.10;0.10;;;;;;;2.01;100.00;97614.59;4985893;28;20125;-73
2024/01/29 01:16:13;;;;;;;0.13;0.13;;;;;;;2.06;100.00;97609.66;4987899;28;20041;-72
2024/01/29 01:18:59;;;;;;;0.20;0.20;;;;;;;2.05;100.00;97614.09;4988730;28;20046;-74
2024/01/29 01:21:45;;;;;;;0.20;0.20;;;;;;;2.16;100.00;97579.41;4989620;28;20496;-75
2024/01/29 01:24:31;;;;;;;0.10;0.10;;;;;;;2.21;100.00;97579.75;4987227;28;20034;-76
2024/01/29 01:27:17;;;;;;;0.13;0.13;;;;;;;2.21;100.00;97582.38;4985411;28;20050;-73
2024/01/29 01:30:05;;;;;;;0.20;0.20;;;;;;;2.19;100.00;97584.38;4988063;28;20508;-73
2024/01/29 01:32:51;;;;;;;0.10;0.10;;;;;;;2.19;100.00;97607.34;4985031;28;20267;-73
2024/01/29 01:35:37;;;;;;;0.10;0.10;;;;;;;2.21;100.00;97605.34;4989363;28;20042;-75
2024/01/29 01:38:25;;;;;;;0.15;0.15;;;;;;;2.16;100.00;97623.50;4974207;28;20076;-72
2024/01/29 01:41:11;;;;;;;0.10;0.10;;;;;;;2.11;100.00;97613.44;4987493;28;20042;-72
2024/01/29 01:43:57;;;;;;;0.10;0.10;;;;;;;2.09;100.00;97625.97;4986538;28;20037;-75
2024/01/29 01:46:43;;;;;;;0.15;0.15;;;;;;;2.12;100.00;97624.84;4986503;28;20050;-75
2024/01/29 01:49:29;;;;;;;0.10;0.10;;;;;;;2.15;100.00;97622.66;4988325;28;20041;-71
2024/01/29 01:52:17;;;;;;;0.20;0.20;;;;;;;2.12;100.00;97627.47;4988957;28;20246;-73
2024/01/29 01:55:03;;;;;;;0.10;0.10;;;;;;;2.03;100.00;97613.47;4984557;28;20042;-74
2024/01/29 01:57:52;;;;;;;0.20;0.20;;;;;;;1.91;100.00;97610.31;4984797;28;20323;-75
2024/01/29 02:00:38;;;;;;;0.10;0.10;;;;;;;1.91;100.00;97620.06;4988657;28;20057;-72
2024/01/29 02:03:25;;;;;;;0.10;0.10;;;;;;;1.86;100.00;97615.25;4988217;28;20440;-71
2024/01/29 02:06:12;;;;;;;0.20;0.20;;;;;;;1.80;100.00;97610.66;4985646;28;20124;-72
2024/01/29 02:08:58;;;;;;;0.10;0.10;;;;;;;1.79;100.00;97611.66;4985576;28;20624;-71
2024/01/29 02:11:44;;;;;;;0.10;0.10;;;;;;;1.75;100.00;97612.97;4988349;28;20041;-74
2024/01/29 02:14:31;;;;;;;0.20;0.20;;;;;;;1.64;100.00;97610.66;4989228;28;20037;-72
2024/01/29 02:17:16;;;;;;;0.10;0.10;;;;;;;1.64;100.00;97606.22;4987036;28;20045;-73
2024/01/29 02:20:04;;;;;;;0.10;0.10;;;;;;;1.62;100.00;97609.97;4986569;28;20045;-72
2024/01/29 02:22:50;;;;;;;0.10;0.10;;;;;;;1.63;100.00;97601.06;4987759;28;20044;-72
2024/01/29 02:25:36;;;;;;;0.10;0.10;;;;;;;1.65;100.00;97607.03;4985532;28;20778;-72
2024/01/29 02:28:23;;;;;;;0.20;0.20;;;;;;;1.66;100.00;97608.69;4985210;28;20511;-72
2024/01/29 02:31:09;;;;;;;0.20;0.20;;;;;;;1.66;100.00;97604.22;4988015;28;20065;-75
2024/01/29 02:33:55;;;;;;;0.10;0.10;;;;;;;1.70;100.00;97603.88;4986261;28;20025;-72
2024/01/29 02:36:41;;;;;;;0.20;0.20;;;;;;;1.72;100.00;97600.09;4986893;28;20045;-75
2024/01/29 02:39:27;;;;;;;0.10;0.10;;;;;;;1.72;100.00;97600.09;4986453;28;20097;-74
2024/01/29 02:42:13;;;;;;;0.10;0.10;;;;;;;1.70;100.00;97603.88;4988097;28;20041;-74
2024/01/29 02:44:58;;;;;;;0.10;0.10;;;;;;;1.64;100.00;97611.47;4982891;28;20464;-76
2024/01/29 02:47:44;;;;;;;0.10;0.10;;;;;;;1.56;100.00;97615.94;4987889;28;20136;-73
2024/01/29 02:50:30;;;;;;;0.10;0.10;;;;;;;1.52;100.00;97619.88;4987109;28;20500;-72
2024/01/29 02:53:16;;;;;;;0.20;0.20;;;;;;;1.46;100.00;97615.25;4985761;28;20368;-73
2024/01/29 02:56:02;;;;;;;0.20;0.20;;;;;;;1.52;100.00;97618.06;4986634;28;20436;-73
2024/01/29 02:58:48;;;;;;;0.10;0.10;;;;;;;1.53;100.00;97609.16;4984159;28;20046;-73
2024/01/29 03:01:34;;;;;;;0.10;0.10;;;;;;;1.56;100.00;97603.56;4986694;28;20125;-72
2024/01/29 03:04:20;;;;;;;0.13;0.13;;;;;;;1.54;100.00;97594.97;4987995;28;20026;-72
2024/01/29 03:07:05;;;;;;;0.10;0.10;;;;;;;1.53;100.00;97595.97;4988029;28;20076;-76
2024/01/29 03:09:51;;;;;;;0.10;0.10;;;;;;;1.50;100.00;97587.56;4987497;28;20243;-73
2024/01/29 03:12:37;;;;;;;0.10;0.10;;;;;;;1.47;100.00;97590.50;4986885;28;20069;-76
2024/01/29 03:15:24;;;;;;;0.10;0.10;;;;;;;1.46;100.00;97599.41;4988433;28;20038;-75
2024/01/29 03:18:10;;;;;;;0.10;0.10;;;;;;;1.46;100.00;97599.41;4989339;28;20137;-74
2024/01/29 03:20:56;;;;;;;0.20;0.20;;;;;;;1.36;100.00;97587.22;4986043;28;20183;-74
2024/01/29 03:23:42;;;;;;;0.15;0.15;;;;;;;1.29;100.00;97586.22;4999734;28;20651;-75
2024/01/29 03:26:28;;;;;;;0.10;0.10;;;;;;;1.25;100.00;97590.16;4986847;28;20108;-74
2024/01/29 03:29:14;;;;;;;0.10;0.10;;;;;;;1.22;100.00;97597.56;4989976;28;20279;-74
2024/01/29 03:32:00;;;;;;;0.20;0.20;;;;;;;1.26;100.00;97591.00;4985017;28;20042;-74
2024/01/29 03:34:46;;;;;;;0.17;0.17;;;;;;;1.21;100.00;97573.00;4988587;28;20046;-73
2024/01/29 03:37:32;;;;;;;0.20;0.20;;;;;;;1.23;100.00;97576.31;4991322;28;20052;-75
2024/01/29 03:40:18;;;;;;;0.10;0.10;;;;;;;1.22;100.00;97584.38;4990367;28;20049;-75
2024/01/29 03:43:03;;;;;;;0.20;0.20;;;;;;;1.10;100.00;97571.53;4987769;28;20084;-74
2024/01/29 03:45:51;;;;;;;0.20;0.20;;;;;;;1.11;100.00;97582.88;4991188;28;20049;-76
2024/01/29 03:48:36;;;;;;;0.10;0.10;;;;;;;1.08;100.00;97591.09;4992960;28;20038;-73
2024/01/29 03:51:22;;;;;;;0.10;0.10;;;;;;;1.07;100.00;97603.47;4989786;28;20378;-74
2024/01/29 03:54:08;;;;;;;0.20;0.20;;;;;;;1.02;100.00;97604.94;4990698;28;20057;-73
2024/01/29 03:56:54;;;;;;;0.20;0.20;;;;;;;0.93;100.00;97605.88;4988477;28;20045;-73
2024/01/29 03:59:42;;;;;;;0.10;0.10;;;;;;;0.88;100.00;97603.75;4991091;28;20054;-74
2024/01/29 04:02:28;;;;;;;0.10;0.10;;;;;;;0.87;100.00;97596.00;4988131;28;20119;-75
2024/01/29 04:05:15;;;;;;;0.20;0.20;;;;;;;0.84;100.00;97602.41;4990280;28;20432;-75
2024/01/29 04:08:02;;;;;;;0.10;0.10;;;;;;;0.81;100.00;97602.72;4988088;28;20480;-76
2024/01/29 04:10:47;;;;;;;0.10;0.10;;;;;;;0.77;100.00;97602.22;4988161;28;20487;-75
2024/01/29 04:13:34;;;;;;;0.20;0.20;;;;;;;0.75;100.00;97603.34;4992487;28;20048;-73
2024/01/29 04:16:20;;;;;;;0.20;0.20;;;;;;;0.83;100.00;97613.94;4988894;28;20153;-74
2024/01/29 04:19:06;;;;;;;0.20;0.20;;;;;;;0.84;100.00;97621.66;4989882;28;20050;-76
2024/01/29 04:21:52;;;;;;;0.20;0.20;;;;;;;0.80;100.00;97623.00;4989220;28;20484;-75
2024/01/29 04:24:38;;;;;;;0.20;0.20;;;;;;;0.84;100.00;97603.22;4990335;28;20041;-74
2024/01/29 04:27:24;;;;;;;0.10;0.10;;;;;;;0.81;100.00;97590.38;4987493;28;20046;-75
2024/01/29 04:30:10;;;;;;;0.13;0.13;;;;;;;0.82;100.00;97607.84;4994856;28;20046;-73
2024/01/29 04:32:56;;;;;;;0.10;0.10;;;;;;;0.86;100.00;97608.34;4990114;28;20077;-74
2024/01/29 04:35:41;;;;;;;0.15;0.15;;;;;;;0.87;100.00;97609.19;4988752;28;20037;-75
2024/01/29 04:38:27;;;;;;;0.10;0.10;;;;;;;0.86;100.00;97596.97;4989282;28;20084;-74
2024/01/29 04:41:20;;;;;;;0.20;0.20;;;;;;;0.84;100.00;97605.03;4990896;28;20544;-72
2024/01/29 04:44:06;;;;;;;0.20;0.20;;;;;;;0.79;100.00;97608.16;4986403;28;20034;-74
2024/01/29 04:46:52;;;;;;;0.20;0.20;;;;;;;0.77;100.00;97604.84;4989726;28;20049;-73
2024/01/29 04:49:37;;;;;;;0.10;0.10;;;;;;;0.76;100.00;97600.56;5003089;28;20050;-75
2024/01/29 04:52:23;;;;;;;0.20;0.20;;;;;;;0.73;100.00;97600.88;4990344;28;20514;-76
2024/01/29 04:55:09;;;;;;;0.20;0.20;;;;;;;0.74;100.00;97599.06;4988511;28;20053;-73
2024/01/29 04:57:55;;;;;;;0.10;0.10;;;;;;;0.70;100.00;97595.09;4989474;28;20042;-72
2024/01/29 05:00:41;;;;;;;0.20;0.20;;;;;;;0.73;100.00;97597.44;4999583;28;20528;-75
2024/01/29 05:03:27;;;;;;;0.13;0.13;;;;;;;0.71;100.00;97607.31;4990522;28;20069;-73
2024/01/29 05:06:13;;;;;;;0.20;0.20;;;;;;;0.69;100.00;97585.53;4992105;28;20046;-74
2024/01/29 05:09:00;;;;;;;0.20;0.20;;;;;;;0.76;100.00;97599.72;4991396;28;20620;-73
2024/01/29 05:11:46;;;;;;;0.10;0.10;;;;;;;0.74;100.00;97601.72;4992393;28;20100;-75
2024/01/29 05:14:32;;;;;;;0.20;0.20;;;;;;;0.76;100.00;97599.72;4993081;28;20355;-74
2024/01/29 05:17:18;;;;;;;0.20;0.20;;;;;;;0.71;100.00;97600.22;4989216;28;20061;-74
2024/01/29 05:20:04;;;;;;;0.10;0.10;;;;;;;0.68;100.00;97605.78;4991244;28;20038;-73
2024/01/29 05:22:50;;;;;;;0.13;0.13;;;;;;;0.70;100.00;97611.75;4989567;28;20046;-73
2024/01/29 05:25:36;;;;;;;0.20;0.20;;;;;;;0.71;100.00;97592.31;4989873;28;20716;-75
2024/01/29 05:28:22;;;;;;;0.10;0.10;;;;;;;0.78;100.00;97600.44;4993532;28;20448;-73
2024/01/29 05:31:08;;;;;;;0.15;0.15;;;;;;;0.85;100.00;97604.03;4990012;28;20064;-75
2024/01/29 05:33:53;;;;;;;0.15;0.15;;;;;;;0.86;100.00;97616.25;4960722;28;20107;-75
2024/01/29 05:36:40;;;;;;;0.10;0.10;;;;;;;0.88;100.00;97613.47;4965754;28;20843;-76
2024/01/29 05:39:27;;;;;;;0.20;0.20;;;;;;;0.91;100.00;97613.97;4973254;28;20034;-72
2024/01/29 05:42:13;;;;;;;0.10;0.10;;;;;;;0.90;100.00;97600.94;4966144;28;20046;-75
2024/01/29 05:44:59;;;;;;;0.15;0.15;;;;;;;0.93;100.00;97625.16;4948212;28;20343;-74
2024/01/29 05:47:45;;;;;;;0.10;0.10;;;;;;;0.94;100.00;97626.84;4967383;28;20506;-74
2024/01/29 05:50:31;;;;;;;0.15;0.15;;;;;;;0.84;100.00;97626.13;4972013;28;20038;-73
2024/01/29 05:53:20;;;;;;;0.10;0.10;;;;;;;0.83;100.00;97627.09;4990446;28;20042;-74
2024/01/29 05:56:06;;;;;;;0.10;0.10;;;;;;;0.84;100.00;97624.31;4989800;28;20048;-74
2024/01/29 05:58:52;;;;;;;0.10;0.10;;;;;;;0.86;100.00;97624.16;4991079;28;20506;-72
2024/01/29 06:01:38;;;;;;;0.10;0.10;;;;;;;0.79;100.00;97620.53;4990710;28;20046;-74
2024/01/29 06:04:24;;;;;;;0.10;0.10;;;;;;;0.76;100.00;97611.09;4989704;28;20504;-75
2024/01/29 06:07:10;;;;;;;0.10;0.10;;;;;;;0.83;100.00;97643.75;4987915;28;20164;-75
2024/01/29 06:09:56;;;;;;;0.10;0.10;;;;;;;0.79;100.00;97642.41;4988903;28;20077;-75
2024/01/29 06:12:42;;;;;;;0.10;0.10;;;;;;;0.73;100.00;97643.03;4992773;28;20087;-74
2024/01/29 06:15:27;;;;;;;0.20;0.20;;;;;;;0.62;100.00;97634.59;4988471;28;20378;-75
2024/01/29 06:18:13;;;;;;;0.20;0.20;;;;;;;0.62;100.00;97637.22;4990631;28;20031;-76
2024/01/29 06:21:00;;;;;;;0.10;0.10;;;;;;;0.63;100.00;97639.72;4988226;28;20038;-73
2024/01/29 06:23:46;;;;;;;0.20;0.20;;;;;;;0.58;100.00;97638.53;4989238;28;20053;-74
2024/01/29 06:26:35;;;;;;;0.20;0.20;;;;;;;0.62;100.00;97642.47;4990429;28;20050;-73
2024/01/29 06:29:20;;;;;;;0.20;0.20;;;;;;;0.62;100.00;97638.03;4986726;28;20034;-75
2024/01/29 06:32:06;;;;;;;0.10;0.10;;;;;;;0.62;100.00;97642.47;4988904;28;20038;-76
2024/01/29 06:34:56;;;;;;;0.20;0.20;;;;;;;0.68;100.00;97645.31;4990422;28;20154;-73
2024/01/29 06:37:42;;;;;;;0.10;0.10;;;;;;;0.76;100.00;97665.63;4989375;28;20673;-75
2024/01/29 06:40:28;;;;;;;0.10;0.10;;;;;;;0.79;100.00;97657.41;4989252;28;20586;-75
2024/01/29 06:43:14;;;;;;;0.20;0.20;;;;;;;0.83;100.00;97648.19;4991322;28;20116;-76
2024/01/29 06:46:00;;;;;;;0.10;0.10;;;;;;;0.87;100.00;97661.88;4989443;28;20092;-74
2024/01/29 06:48:46;;;;;;;0.13;0.13;;;;;;;0.82;100.00;97657.09;4988377;28;20160;-74
2024/01/29 06:51:32;;;;;;;0.10;0.10;;;;;;;0.80;100.00;97649.34;4993098;28;20034;-75
2024/01/29 06:54:18;;;;;;;0.10;0.10;;;;;;;0.82;100.00;97647.38;4990405;28;20473;-75
2024/01/29 06:57:04;;;;;;;0.10;0.10;;;;;;;0.78;100.00;97643.41;4988809;28;20046;-73
2024/01/29 06:59:49;;;;;;;0.20;0.20;;;;;;;0.74;100.00;97655.22;4986100;28;20084;-74
2024/01/29 07:02:35;;;;;;;0.20;0.20;;;;;;;0.73;100.00;97665.94;4989426;28;20069;-74
2024/01/29 07:05:21;;;;;;;0.10;0.10;;;;;;;0.68;100.00;97666.41;4984736;28;20034;-73
2024/01/29 07:08:07;;;;;;;0.17;0.17;;;;;;;0.66;100.00;97671.00;4992460;28;20044;-75
2024/01/29 07:10:54;;;;;;;0.20;0.20;;;;;;;0.60;100.00;97662.91;4991875;28;20501;-74
2024/01/29 07:13:40;;;;;;;0.20;0.20;;;;;;;0.56;100.00;97670.31;4993845;28;20553;-75
2024/01/29 07:16:26;;;;;;;0.10;0.10;;;;;;;0.55;100.00;97682.66;4992233;28;20045;-73
2024/01/29 07:19:17;;;;;;;0.10;0.10;;;;;;;0.59;100.00;97683.16;4992730;28;20043;-76
2024/01/29 07:22:04;;;;;;;0.15;0.15;;;;;;;0.46;100.00;97667.75;4991036;28;20042;-72
2024/01/29 07:24:50;;;;;;;0.20;0.20;;;;;;;0.53;100.00;97691.66;4991797;28;20467;-75
2024/01/29 07:27:36;;;;;;;0.10;0.10;;;;;;;0.53;100.00;97686.41;4991614;28;20121;-76
2024/01/29 07:30:22;;;;;;;0.20;0.20;;;;;;;0.53;100.00;97687.22;4994529;28;20555;-73
2024/01/29 07:33:08;;;;;;;0.20;0.20;;;;;;;0.53;100.00;97695.13;4993627;28;20046;-73
2024/01/29 07:35:53;;;;;;;0.20;0.20;;;;;;;0.46;100.00;97696.72;4990089;28;20049;-74
2024/01/29 07:38:40;;;;;;;0.13;0.13;;;;;;;0.46;100.00;97691.44;4994515;28;20064;-75
2024/01/29 07:41:26;;;;;;;0.20;0.20;;;;;;;0.49;100.00;97687.72;4987173;28;20535;-73
2024/01/29 07:44:12;;;;;;;0.10;0.10;;;;;;;0.52;100.00;97682.94;4993056;28;20616;-75
2024/01/29 07:46:58;;;;;;;0.10;0.10;;;;;;;0.47;100.00;97668.59;4993469;28;20359;-75
2024/01/29 07:49:44;;;;;;;0.20;0.20;;;;;;;0.43;100.00;97678.59;4992210;28;20078;-74
2024/01/29 07:52:30;;;;;;;0.10;0.10;;;;;;;0.41;100.00;97677.94;4990674;28;20034;-73
2024/01/29 07:55:16;;;;;;;0.20;0.20;;;;;;;0.37;100.00;97671.31;4993318;28;20528;-73
2024/01/29 07:58:02;;;;;;;0.10;0.10;;;;;;;0.33;100.00;97677.06;4993139;28;20038;-74
2024/01/29 08:00:50;;;;;;;0.20;0.20;;;;;;;0.32;100.00;97686.78;4989849;28;20481;-73
2024/01/29 08:03:35;;;;;;;0.20;0.20;;;;;;;0.34;100.00;97678.72;4993945;28;20582;-75
2024/01/29 08:06:21;;;;;;;0.15;0.15;;;;;;;0.28;100.00;97675.72;4989340;28;20042;-75
2024/01/29 08:09:07;;;;;;;0.10;0.10;;;;;;;0.39;100.00;97672.00;4991115;28;20091;-74
2024/01/29 08:11:53;;;;;;;0.20;0.20;;;;;;;0.44;100.00;97671.53;4989651;28;20038;-74
2024/01/29 08:14:39;;;;;;;0.20;0.20;;;;;;;0.56;100.00;97678.19;4989725;28;20042;-73
2024/01/29 08:17:26;;;;;;;0.20;0.20;;;;;;;0.61;100.00;97683.81;4988865;28;20042;-74
2024/01/29 08:20:12;;;;;;;0.20;0.20;;;;;;;0.58;100.00;97681.50;4987020;28;20516;-75
2024/01/29 08:22:58;;;;;;;0.10;0.10;;;;;;;0.57;100.00;97679.03;4990026;28;20050;-76
2024/01/29 08:25:44;;;;;;;0.10;0.10;;;;;;;0.66;100.00;97699.97;4990440;28;20523;-75
2024/01/29 08:28:30;;;;;;;0.20;0.20;;;;;;;0.78;100.00;97692.66;4990270;28;20042;-74
2024/01/29 08:31:16;;;;;;;0.20;0.20;;;;;;;0.82;100.00;97710.63;4991647;28;20077;-75
2024/01/29 08:34:04;;;;;;;0.20;0.20;;;;;;;0.92;100.00;97693.84;4990924;28;20041;-75
2024/01/29 08:36:50;;;;;;;0.17;0.17;;;;;;;0.95;100.00;97693.56;4992462;28;20070;-75
2024/01/29 08:39:36;;;;;;;0.15;0.15;;;;;;;1.07;100.00;97697.53;4988344;28;20439;-73
2024/01/29 08:42:21;;;;;;;0.20;0.20;;;;;;;1.19;100.00;97698.94;4990257;28;20073;-74
2024/01/29 08:45:08;;;;;;;0.10;0.10;;;;;;;1.25;100.00;97698.28;4988577;28;20070;-73
2024/01/29 08:47:54;;;;;;;0.20;0.20;;;;;;;1.27;100.00;97688.41;4990815;28;20579;-73
2024/01/29 08:50:40;;;;;;;0.10;0.10;;;;;;;1.45;100.00;97705.91;4991200;28;20148;-76
2024/01/29 08:53:26;;;;;;;0.20;0.20;;;;;;;1.55;100.00;97706.59;4992752;28;20041;-73
2024/01/29 08:56:12;;;;;;;0.20;0.20;;;;;;;1.59;100.00;97689.47;4989235;28;20041;-75
2024/01/29 08:58:58;;;;;;;0.20;0.20;;;;;;;1.68;100.00;97696.41;4988050;28;20046;-75
2024/01/29 09:01:44;;;;;;;0.10;0.10;;;;;;;1.78;100.00;97699.72;4988564;28;20152;-75
2024/01/29 09:04:30;;;;;;;0.10;0.10;;;;;;;2.00;100.00;97692.16;4990960;28;20100;-75
2024/01/29 09:07:17;;;;;;;0.20;0.20;;;;;;;2.06;100.00;97699.44;4987055;28;20403;-75
2024/01/29 09:10:03;;;;;;;0.20;0.20;;;;;;;2.08;100.00;97700.06;4989503;28;20044;-73
2024/01/29 09:12:49;;;;;;;0.20;0.20;;;;;;;2.16;100.00;97700.91;5004856;28;20088;-74
2024/01/29 09:15:35;;;;;;;0.10;0.10;;;;;;;2.30;100.00;97706.53;4990973;28;20038;-76
2024/01/29 09:18:21;;;;;;;0.10;0.10;;;;;;;2.30;100.00;97691.50;4986571;28;20065;-74
2024/01/29 09:21:09;;;;;;;0.17;0.17;;;;;;;2.43;100.00;97707.69;4988095;28;20189;-73
2024/01/29 09:23:55;;;;;;;0.10;0.10;;;;;;;2.52;100.00;97705.84;4987933;28;20472;-77
2024/01/29 09:26:41;;;;;;;0.15;0.15;;;;;;;2.68;100.00;97724.31;4990174;28;20050;-75
2024/01/29 09:29:27;;;;;;;0.10;0.10;;;;;;;2.76;100.00;97724.28;4990367;28;20381;-74
2024/01/29 09:32:13;;;;;;;0.10;0.10;;;;;;;2.92;100.00;97697.00;4988013;28;20046;-74
2024/01/29 09:34:58;;;;;;;0.20;0.20;;;;;;;3.00;100.00;97720.75;4990103;28;20073;-74
2024/01/29 09:37:44;;;;;;;0.20;0.20;;;;;;;3.15;100.00;97701.53;4987669;28;20043;-73
2024/01/29 09:40:30;;;;;;;0.20;0.20;;;;;;;3.57;100.00;97715.22;5002189;28;20042;-75
2024/01/29 09:43:20;;;;;;;0.20;0.20;;;;;;;3.95;100.00;97710.03;4991162;28;20109;-74
2024/01/29 09:46:07;;;;;;;0.20;0.20;;;;;;;4.67;100.00;97707.81;4988786;28;20495;-75
2024/01/29 09:48:53;;;;;;;0.20;0.20;;;;;;;5.45;100.00;97710.91;4990918;28;20124;-74
2024/01/29 09:51:40;;;;;;;0.30;0.30;;;;;;;6.55;100.00;97700.81;4992628;28;20054;-74
2024/01/29 09:54:26;;;;;;;0.20;0.20;;;;;;;7.35;100.00;97703.97;4988869;28;20072;-74
2024/01/29 09:57:12;;;;;;;0.30;0.30;;;;;;;8.50;100.00;97700.41;4987004;28;20049;-73
2024/01/29 09:59:58;;;;;;;0.30;0.30;;;;;;;9.90;100.00;97705.19;4986142;28;20056;-74
2024/01/29 10:02:47;;;;;;;0.30;0.30;;;;;;;10.09;97.42;97695.41;4987725;28;20108;-77
2024/01/29 10:05:33;;;;;;;0.30;0.30;;;;;;;11.10;91.98;97697.09;4989946;28;20057;-75
2024/01/29 10:08:21;;;;;;;0.30;0.30;;;;;;;11.21;91.74;97695.56;4991419;28;20046;-77
2024/01/29 10:11:07;;;;;;;0.30;0.30;;;;;;;11.88;88.58;97699.94;4991130;28;20376;-74
2024/01/29 10:13:59;;;;;;;0.20;0.20;;;;;;;11.93;84.40;97702.75;4989693;28;20058;-75
2024/01/29 10:16:48;;;;;;;0.30;0.30;;;;;;;13.31;78.55;97698.94;4987446;28;20733;-74
2024/01/29 10:19:37;;;;;;;0.20;0.20;;;;;;;14.09;69.15;97694.88;4991286;28;20069;-73
2024/01/29 10:22:27;;;;;;;0.22;0.22;;;;;;;13.22;71.08;97699.50;4988375;28;20042;-74
2024/01/29 10:25:14;;;;;;;0.30;0.30;;;;;;;13.72;73.09;97696.28;4992037;28;20042;-75
2024/01/29 10:28:11;;;;;;;0.25;0.25;;;;;;;15.38;60.44;97698.56;5002559;28;20504;-75
2024/01/29 10:30:58;;;;;;;0.30;0.30;;;;;;;15.79;60.62;97700.75;4987850;28;20488;-74
2024/01/29 10:33:44;;;;;;;0.20;0.20;;;;;;;14.24;63.93;97694.31;4989851;28;20078;-74
2024/01/29 10:36:29;;;;;;;0.20;0.20;;;;;;;14.22;72.79;97681.09;4991862;28;20053;-74
2024/01/29 10:39:20;;;;;;;0.28;0.28;;;;;;;14.10;63.21;97701.88;4988871;28;20038;-74
2024/01/29 10:42:08;;;;;;;0.40;0.40;;;;;;;14.43;68.26;97693.03;4989883;28;20056;-75
2024/01/29 10:44:58;;;;;;;0.30;0.30;;;;;;;13.97;64.79;97696.78;4988184;28;20140;-74
2024/01/29 10:47:52;;;;;;;0.22;0.22;;;;;;;14.25;67.31;97692.44;4990421;28;20065;-73
2024/01/29 10:50:38;;;;;;;0.30;0.30;;;;;;;16.41;57.13;97700.34;4988034;28;20038;-74
2024/01/29 10:53:25;;;;;;;0.30;0.30;;;;;;;16.71;53.87;97674.69;4986813;28;20038;-76
2024/01/29 10:56:12;;;;;;;0.22;0.22;;;;;;;16.17;54.46;97688.22;4991411;28;20525;-75
2024/01/29 10:58:59;;;;;;;0.20;0.20;;;;;;;16.44;56.66;97680.94;4988771;28;20156;-77
2024/01/29 11:01:47;;;;;;;0.20;0.20;;;;;;;14.56;62.42;97683.06;4989933;28;20053;-74
2024/01/29 11:04:33;;;;;;;0.20;0.20;;;;;;;13.46;72.89;97684.97;4989055;28;20054;-75
2024/01/29 11:07:22;;;;;;;0.20;0.20;;;;;;;13.02;78.19;97695.28;4987601;28;20542;-75
2024/01/29 11:10:17;;;;;;;0.20;0.20;;;;;;;13.15;80.35;97683.50;4986190;28;20045;-75
2024/01/29 11:13:05;;;;;;;0.30;0.30;;;;;;;14.45;75.52;97679.31;4985317;28;20077;-75
2024/01/29 11:15:51;;;;;;;0.20;0.20;;;;;;;16.44;59.20;97677.41;4988767;28;20046;-74
2024/01/29 11:18:37;;;;;;;0.10;0.10;;;;;;;15.93;58.86;97667.97;4986722;28;20489;-74
2024/01/29 11:21:24;;;;;;;0.20;0.20;;;;;;;15.90;58.85;97668.50;4989227;28;20050;-74
2024/01/29 11:24:11;;;;;;;0.20;0.20;;;;;;;16.57;56.81;97659.94;4989787;28;20046;-74
2024/01/29 11:27:09;;;;;;;0.10;0.10;;;;;;;17.62;49.53;97665.53;4988289;28;20057;-75
2024/01/29 11:29:55;;;;;;;0.20;0.20;;;;;;;18.66;46.36;97664.44;4986714;28;20452;-75
2024/01/29 11:32:41;;;;;;;0.20;0.20;;;;;;;18.04;46.01;97666.22;4986836;28;20057;-74
2024/01/29 11:35:29;;;;;;;0.10;0.10;;;;;;;19.00;42.74;97659.28;4987156;28;20698;-75
2024/01/29 11:38:21;;;;;;;0.20;0.20;;;;;;;19.68;42.81;97648.78;4989468;28;20038;-76
2024/01/29 11:41:07;;;;;;;0.13;0.13;;;;;;;19.93;42.48;97655.22;4985826;28;20104;-74
2024/01/29 11:43:53;;;;;;;0.20;0.20;;;;;;;20.77;39.94;97643.22;4985400;28;20056;-73
2024/01/29 11:46:42;;;;;;;0.10;0.10;;;;;;;18.74;40.96;97649.53;4986554;28;20454;-74
2024/01/29 11:49:28;;;;;;;0.20;0.20;;;;;;;18.53;43.39;97641.41;4985896;28;20489;-74
2024/01/29 11:52:16;;;;;;;0.10;0.10;;;;;;;19.00;41.03;97653.88;4985286;28;20042;-76
2024/01/29 11:55:02;;;;;;;0.20;0.20;;;;;;;19.37;44.21;97647.25;4989574;28;20791;-75
2024/01/29 11:57:52;;;;;;;0.20;0.20;;;;;;;18.13;41.57;97652.97;4988886;28;20042;-77
2024/01/29 12:00:38;;;;;;;0.10;0.10;;;;;;;16.99;49.01;97654.63;4991711;28;20081;-74
2024/01/29 12:03:34;;;;;;;0.10;0.10;;;;;;;17.48;50.45;97644.34;4990430;28;20096;-73
2024/01/29 12:06:20;;;;;;;0.15;0.15;;;;;;;15.75;51.52;97653.75;5005677;28;20654;-75
2024/01/29 12:09:09;;;;;;;0.05;0.05;;;;;;;14.57;63.90;97657.75;4990501;28;20046;-73
2024/01/29 12:11:55;;;;;;;0.20;0.20;;;;;;;14.31;63.48;97654.59;4992887;28;20039;-74
2024/01/29 12:14:40;;;;;;;0.13;0.13;;;;;;;14.54;68.47;97659.03;4988793;28;20042;-76
2024/01/29 12:17:27;;;;;;;0.20;0.20;;;;;;;14.81;66.99;97661.09;4989236;28;20045;-73
2024/01/29 12:20:13;;;;;;;0.15;0.15;;;;;;;14.23;67.81;97652.28;4990456;28;20034;-74
2024/01/29 12:22:59;;;;;;;0.10;0.10;;;;;;;13.48;74.74;97652.50;4991498;28;20058;-75
2024/01/29 12:25:46;;;;;;;0.10;0.10;;;;;;;13.77;74.01;97664.91;4988900;28;20050;-74
2024/01/29 12:28:32;;;;;;;0.13;0.13;;;;;;;13.81;71.78;97665.25;4992038;28;20503;-76
2024/01/29 12:31:19;;;;;;;0.10;0.10;;;;;;;14.43;68.93;97660.72;4992362;28;20039;-76
2024/01/29 12:34:06;;;;;;;0.20;0.20;;;;;;;17.27;52.73;97650.72;4990531;28;20050;-75
2024/01/29 12:36:53;;;;;;;0.20;0.20;;;;;;;18.59;45.99;97639.47;4987932;28;20454;-74
2024/01/29 12:39:39;;;;;;;0.20;0.20;;;;;;;19.90;43.21;97634.03;4992274;28;20043;-73
2024/01/29 12:42:28;;;;;;;0.20;0.20;;;;;;;19.54;43.10;97636.09;4989067;28;20038;-75
2024/01/29 12:45:18;;;;;;;0.10;0.10;;;;;;;18.17;46.98;97623.47;4990632;28;20327;-74
2024/01/29 12:48:04;;;;;;;0.20;0.20;;;;;;;18.40;44.19;97641.09;4990704;28;20137;-75
2024/01/29 12:50:51;;;;;;;0.10;0.10;;;;;;;17.50;47.65;97634.06;4991650;28;20481;-76
2024/01/29 12:53:37;;;;;;;0.10;0.10;;;;;;;16.03;55.23;97635.69;4990881;28;20038;-73
2024/01/29 12:56:25;;;;;;;0.10;0.10;;;;;;;13.50;74.56;97645.81;4988657;28;20038;-73
2024/01/29 12:59:12;;;;;;;0.17;0.17;;;;;;;11.98;86.85;97640.38;4987793;28;20122;-74
2024/01/29 13:01:57;;;;;;;0.20;0.20;;;;;;;12.55;86.33;97628.13;4989606;28;20054;-74
2024/01/29 13:04:43;;;;;;;0.10;0.10;;;;;;;13.33;82.50;97640.38;4988778;28;20584;-74